createdAt,value
2022-12-29T00:00:18.441Z,8.92
2022-12-29T00:02:45.018Z,8.88
2022-12-29T00:05:11.706Z,8.78
2022-12-29T00:07:38.192Z,8.87
2022-12-29T00:10:05.595Z,8.90
2022-12-29T00:12:52.081Z,8.94
2022-12-29T00:15:37.459Z,8.83
2022-12-29T00:18:04.236Z,8.91
2022-12-29T00:20:59.530Z,8.98
2022-12-29T00:23:44.804Z,8.96
2022-12-29T00:26:35.957Z,8.87
2022-12-29T00:29:21.315Z,8.93
2022-12-29T00:32:06.727Z,8.87
2022-12-29T00:34:52.868Z,8.76
2022-12-29T00:37:39.481Z,8.87
2022-12-29T00:40:25.005Z,8.89
2022-12-29T00:43:10.119Z,8.85
2022-12-29T00:45:36.624Z,8.95
2022-12-29T00:48:03.258Z,8.85
2022-12-29T00:50:29.745Z,8.94
2022-12-29T00:52:56.269Z,8.99
2022-12-29T00:55:22.708Z,9.05
2022-12-29T00:57:49.160Z,9.07
2022-12-29T01:00:15.769Z,9.16
2022-12-29T01:02:42.379Z,9.12
2022-12-29T01:05:09.399Z,9.21
2022-12-29T01:07:35.870Z,9.23
2022-12-29T01:10:11.561Z,9.17
2022-12-29T01:12:41.385Z,9.19
2022-12-29T01:15:10.930Z,9.19
2022-12-29T01:17:37.486Z,9.22
2022-12-29T01:20:05.911Z,9.25
2022-12-29T01:22:32.469Z,9.27
2022-12-29T01:24:58.944Z,9.24
2022-12-29T01:27:25.487Z,9.27
2022-12-29T01:29:51.984Z,9.34
2022-12-29T01:32:18.647Z,9.26
2022-12-29T01:34:45.190Z,9.34
2022-12-29T01:37:12.371Z,9.34
2022-12-29T01:39:38.981Z,9.23
2022-12-29T01:42:05.945Z,9.31
2022-12-29T01:44:53.343Z,9.22
2022-12-29T01:47:37.388Z,9.20
2022-12-29T01:50:29.532Z,9.18
2022-12-29T01:53:33.580Z,9.13
2022-12-29T01:56:08.396Z,9.11
2022-12-29T01:58:40.669Z,9.08
2022-12-29T02:01:07.508Z,9.09
2022-12-29T02:03:36.563Z,9.17
2022-12-29T02:06:13.027Z,9.18
2022-12-29T02:08:41.821Z,9.11
2022-12-29T02:11:08.775Z,9.13
2022-12-29T02:13:35.607Z,9.05
2022-12-29T02:16:56.040Z,9.01
2022-12-29T02:20:10.972Z,8.85
2022-12-29T02:23:09.452Z,8.94
2022-12-29T02:25:55.641Z,8.92
2022-12-29T02:28:55.432Z,8.93
2022-12-29T02:31:55.705Z,9.11
2022-12-29T02:34:35.990Z,9.19
2022-12-29T02:37:31.936Z,9.22
2022-12-29T02:40:18.453Z,9.21
2022-12-29T02:42:52.248Z,9.27
2022-12-29T02:45:44.768Z,9.33
2022-12-29T02:48:25.521Z,9.30
2022-12-29T02:51:21.809Z,9.26
2022-12-29T02:54:08.103Z,9.35
2022-12-29T02:56:34.607Z,9.34
2022-12-29T02:59:01.280Z,9.35
2022-12-29T03:02:13.831Z,9.39
2022-12-29T03:04:59.477Z,9.26
2022-12-29T03:07:49.681Z,9.24
2022-12-29T03:10:49.809Z,9.11
2022-12-29T03:14:32.846Z,9.09
2022-12-29T03:17:15.890Z,9.13
2022-12-29T03:19:52.193Z,9.07
2022-12-29T03:22:28.901Z,9.08
2022-12-29T03:25:02.107Z,8.83
2022-12-29T03:27:35.832Z,9.09
2022-12-29T03:30:06.603Z,9.18
2022-12-29T03:32:43.496Z,9.25
2022-12-29T03:35:15.707Z,9.30
2022-12-29T03:37:56.724Z,9.27
2022-12-29T03:40:27.107Z,9.35
2022-12-29T03:42:55.422Z,9.35
2022-12-29T03:45:21.994Z,9.58
2022-12-29T03:47:48.738Z,9.49
2022-12-29T03:50:15.580Z,9.44
2022-12-29T03:52:42.081Z,9.37
2022-12-29T03:55:09.233Z,9.41
2022-12-29T03:57:35.781Z,9.40
2022-12-29T04:00:04.951Z,9.52
2022-12-29T04:02:31.802Z,9.43
2022-12-29T04:04:58.425Z,9.35
2022-12-29T04:07:24.928Z,9.41
2022-12-29T04:09:51.879Z,9.41
2022-12-29T04:12:18.441Z,9.45
2022-12-29T04:14:44.903Z,9.47
2022-12-29T04:17:11.340Z,9.47
2022-12-29T04:19:37.849Z,9.41
2022-12-29T04:22:04.392Z,9.42
2022-12-29T04:24:30.859Z,9.47
2022-12-29T04:26:57.351Z,9.46
2022-12-29T04:29:23.997Z,9.45
2022-12-29T04:31:50.485Z,9.44
2022-12-29T04:34:17.189Z,9.40
2022-12-29T04:36:45.006Z,9.41
2022-12-29T04:39:11.577Z,9.42
2022-12-29T04:41:38.102Z,9.45
2022-12-29T04:44:04.581Z,9.49
2022-12-29T04:46:31.155Z,9.36
2022-12-29T04:48:57.747Z,9.39
2022-12-29T04:51:24.377Z,9.41
2022-12-29T04:53:50.807Z,9.39
2022-12-29T04:56:17.340Z,9.34
2022-12-29T04:58:45.007Z,9.35
2022-12-29T05:01:11.493Z,9.35
2022-12-29T05:03:38.073Z,9.31
2022-12-29T05:06:04.630Z,9.23
2022-12-29T05:08:31.196Z,9.25
2022-12-29T05:10:58.524Z,9.29
2022-12-29T05:13:25.111Z,9.30
2022-12-29T05:15:53.868Z,9.32
2022-12-29T05:18:20.998Z,9.27
2022-12-29T05:20:48.510Z,9.19
2022-12-29T05:23:16.423Z,9.20
2022-12-29T05:25:46.221Z,9.24
2022-12-29T05:28:13.748Z,9.19
2022-12-29T05:30:41.303Z,9.01
2022-12-29T05:33:07.789Z,9.09
2022-12-29T05:35:34.354Z,9.12
2022-12-29T05:38:00.863Z,9.13
2022-12-29T05:40:27.399Z,9.06
2022-12-29T05:42:53.925Z,9.06
2022-12-29T05:45:20.368Z,8.96
2022-12-29T05:47:46.852Z,8.90
2022-12-29T05:50:13.418Z,8.95
2022-12-29T05:52:40.528Z,9.01
2022-12-29T05:55:08.010Z,9.03
2022-12-29T05:57:34.458Z,8.93
2022-12-29T06:00:01.055Z,9.02
2022-12-29T06:02:27.707Z,9.04
2022-12-29T06:04:54.263Z,9.07
2022-12-29T06:07:20.779Z,9.05
2022-12-29T06:09:47.347Z,9.01
2022-12-29T06:12:13.949Z,9.01
2022-12-29T06:14:40.672Z,9.00
2022-12-29T06:17:07.254Z,9.10
2022-12-29T06:19:33.696Z,9.11
2022-12-29T06:22:00.205Z,9.20
2022-12-29T06:24:26.730Z,9.16
2022-12-29T06:26:53.265Z,9.22
2022-12-29T06:29:21.422Z,9.24
2022-12-29T06:31:48.006Z,9.27
2022-12-29T06:34:14.550Z,9.33
2022-12-29T06:36:41.794Z,9.23
2022-12-29T06:39:08.334Z,9.22
2022-12-29T06:41:34.827Z,9.16
2022-12-29T06:44:01.326Z,9.15
2022-12-29T06:46:27.873Z,9.27
2022-12-29T06:48:54.350Z,9.31
2022-12-29T06:51:20.925Z,9.33
2022-12-29T06:53:47.390Z,9.38
2022-12-29T06:56:14.006Z,9.35
2022-12-29T06:58:40.554Z,9.31
2022-12-29T07:01:07.191Z,9.29
2022-12-29T07:03:33.924Z,9.23
2022-12-29T07:06:00.536Z,9.29
2022-12-29T07:08:27.042Z,9.26
2022-12-29T07:10:53.541Z,9.33
2022-12-29T07:13:20.119Z,9.36
2022-12-29T07:15:46.695Z,9.40
2022-12-29T07:18:13.204Z,9.43
2022-12-29T07:20:39.740Z,9.44
2022-12-29T07:23:06.501Z,9.49
2022-12-29T07:25:33.161Z,9.57
2022-12-29T07:27:59.611Z,9.60
2022-12-29T07:30:26.175Z,9.59
2022-12-29T07:32:52.631Z,9.48
2022-12-29T07:35:19.157Z,9.45
2022-12-29T07:37:45.706Z,9.50
2022-12-29T07:40:13.715Z,9.42
2022-12-29T07:42:40.799Z,8.85
2022-12-29T07:45:08.353Z,8.46
2022-12-29T07:47:34.843Z,8.50
2022-12-29T07:50:01.512Z,8.46
2022-12-29T07:52:27.991Z,8.36
2022-12-29T07:54:54.477Z,8.33
2022-12-29T07:57:23.901Z,8.29
2022-12-29T07:59:54.541Z,8.29
2022-12-29T08:02:21.183Z,8.45
2022-12-29T08:04:47.768Z,8.55
2022-12-29T08:07:14.231Z,8.65
2022-12-29T08:09:40.794Z,8.69
2022-12-29T08:12:10.741Z,8.83
2022-12-29T08:14:37.681Z,8.92
2022-12-29T08:17:04.339Z,8.93
2022-12-29T08:19:30.891Z,9.00
2022-12-29T08:21:57.459Z,9.00
2022-12-29T08:24:23.951Z,9.04
2022-12-29T08:26:50.657Z,9.07
2022-12-29T08:29:17.721Z,9.04
2022-12-29T08:31:44.380Z,9.01
2022-12-29T08:34:11.368Z,8.99
2022-12-29T08:36:37.845Z,9.06
2022-12-29T08:39:04.516Z,9.04
2022-12-29T08:41:31.020Z,9.03
2022-12-29T08:43:57.677Z,9.09
2022-12-29T08:46:24.272Z,9.40
2022-12-29T08:48:50.846Z,9.16
2022-12-29T08:51:22.783Z,9.13
2022-12-29T08:53:51.584Z,9.12
2022-12-29T08:56:18.253Z,9.15
2022-12-29T08:58:44.749Z,9.18
2022-12-29T09:01:11.732Z,9.19
2022-12-29T09:04:13.082Z,9.16
2022-12-29T09:06:25.353Z,9.17
2022-12-29T09:08:55.766Z,9.19
2022-12-29T09:11:26.010Z,9.26
2022-12-29T09:13:54.393Z,9.19
2022-12-29T09:16:23.898Z,9.20
2022-12-29T09:18:51.384Z,9.26
2022-12-29T09:21:18.024Z,9.21
2022-12-29T09:23:44.503Z,9.36
2022-12-29T09:26:11.101Z,9.37
2022-12-29T09:28:37.693Z,9.27
2022-12-29T09:31:04.369Z,9.23
2022-12-29T09:33:31.108Z,9.23
2022-12-29T09:35:59.113Z,9.17
2022-12-29T09:38:27.499Z,9.09
2022-12-29T09:41:18.541Z,9.07
2022-12-29T09:44:04.413Z,9.08
2022-12-29T09:46:44.565Z,9.14
2022-12-29T09:49:32.245Z,9.17
2022-12-29T09:52:12.225Z,9.15
2022-12-29T09:54:57.981Z,9.24
2022-12-29T09:57:42.997Z,9.19
2022-12-29T10:00:21.464Z,9.22
2022-12-29T10:03:08.552Z,9.13
2022-12-29T10:05:46.349Z,8.89
2022-12-29T10:08:38.127Z,8.81
2022-12-29T10:11:24.979Z,9.02
2022-12-29T10:14:18.450Z,9.13
2022-12-29T10:17:04.426Z,9.09
2022-12-29T10:19:56.505Z,9.17
2022-12-29T10:22:35.886Z,9.15
2022-12-29T10:25:12.011Z,9.14
2022-12-29T10:27:41.083Z,9.18
2022-12-29T10:30:14.483Z,9.07
2022-12-29T10:32:51.252Z,9.14
2022-12-29T10:35:26.467Z,9.14
2022-12-29T10:38:26.377Z,9.13
2022-12-29T10:40:59.484Z,9.24
2022-12-29T10:43:30.575Z,9.29
2022-12-29T10:46:14.291Z,9.21
2022-12-29T10:48:40.837Z,9.35
2022-12-29T10:51:09.575Z,9.46
2022-12-29T10:54:47.094Z,9.46
2022-12-29T10:57:32.603Z,9.35
2022-12-29T10:59:59.736Z,9.49
2022-12-29T11:02:26.202Z,9.48
2022-12-29T11:05:12.093Z,9.43
2022-12-29T11:07:40.113Z,9.42
2022-12-29T11:10:41.801Z,9.40
2022-12-29T11:13:17.531Z,9.39
2022-12-29T11:15:49.980Z,9.42
2022-12-29T11:18:47.720Z,9.39
2022-12-29T11:21:41.257Z,9.35
2022-12-29T11:24:30.650Z,9.44
2022-12-29T11:27:17.415Z,9.41
2022-12-29T11:29:46.572Z,9.45
2022-12-29T11:32:29.087Z,9.29
2022-12-29T11:35:01.873Z,9.36
2022-12-29T11:37:37.144Z,9.44
2022-12-29T11:40:17.003Z,9.40
2022-12-29T11:42:57.634Z,9.51
2022-12-29T11:45:28.880Z,9.55
2022-12-29T11:48:08.812Z,9.59
2022-12-29T11:50:41.200Z,9.62
2022-12-29T11:53:36.837Z,9.45
2022-12-29T11:56:35.377Z,9.46
2022-12-29T11:59:40.279Z,9.44
2022-12-29T12:02:43.699Z,9.47
2022-12-29T12:05:28.094Z,9.56
2022-12-29T12:08:20.778Z,9.56
2022-12-29T12:10:59.820Z,9.71
2022-12-29T12:13:53.277Z,9.80
2022-12-29T12:16:28.189Z,9.69
2022-12-29T12:19:04.007Z,9.70
2022-12-29T12:21:45.358Z,9.55
2022-12-29T12:24:45.226Z,9.57
2022-12-29T12:27:43.439Z,9.66
2022-12-29T12:30:20.188Z,9.63
2022-12-29T12:32:55.908Z,9.54
2022-12-29T12:35:27.961Z,9.56
2022-12-29T12:38:32.364Z,9.67
2022-12-29T12:41:21.290Z,9.56
2022-12-29T12:44:04.521Z,9.56
2022-12-29T12:47:24.660Z,9.61
2022-12-29T12:50:27.378Z,9.59
2022-12-29T12:53:27.019Z,9.66
2022-12-29T12:56:35.597Z,9.45
2022-12-29T12:59:54.731Z,9.43
2022-12-29T13:02:45.776Z,9.52
2022-12-29T13:05:55.621Z,9.54
2022-12-29T13:08:49.957Z,9.38
2022-12-29T13:11:35.992Z,9.46
2022-12-29T13:14:53.043Z,9.50
2022-12-29T13:17:44.067Z,9.38
2022-12-29T13:20:46.494Z,9.41
2022-12-29T13:23:42.998Z,9.41
2022-12-29T13:26:20.265Z,9.42
2022-12-29T13:29:14.749Z,9.59
2022-12-29T13:32:10.623Z,9.22
2022-12-29T13:35:44.645Z,9.27
2022-12-29T13:38:25.529Z,9.33
2022-12-29T13:41:01.557Z,9.24
2022-12-29T13:43:32.615Z,9.27
2022-12-29T13:46:25.894Z,9.12
2022-12-29T13:49:05.892Z,9.16
2022-12-29T13:51:35.340Z,9.18
2022-12-29T13:54:40.734Z,9.25
2022-12-29T13:57:27.879Z,9.32
2022-12-29T14:00:13.173Z,9.26
2022-12-29T14:02:45.981Z,9.29
2022-12-29T14:05:21.667Z,9.32
2022-12-29T14:07:57.427Z,9.25
2022-12-29T14:10:34.416Z,9.21
2022-12-29T14:13:11.329Z,9.12
2022-12-29T14:15:42.422Z,9.09
2022-12-29T14:18:13.418Z,9.04
2022-12-29T14:21:01.014Z,9.12
2022-12-29T14:23:47.594Z,9.24
2022-12-29T14:26:33.145Z,9.20
2022-12-29T14:29:24.599Z,9.44
2022-12-29T14:31:53.370Z,9.29
2022-12-29T14:34:22.932Z,9.32
2022-12-29T14:37:01.008Z,9.23
2022-12-29T14:39:43.996Z,9.20
2022-12-29T14:42:10.418Z,9.21
2022-12-29T14:45:25.293Z,9.11
2022-12-29T14:47:54.611Z,9.09
2022-12-29T14:50:37.957Z,9.11
2022-12-29T14:53:07.379Z,9.08
2022-12-29T14:55:48.143Z,9.01
2022-12-29T14:58:46.172Z,9.04
2022-12-29T15:01:46.133Z,9.01
2022-12-29T15:04:31.322Z,8.90
2022-12-29T15:07:00.273Z,8.92
2022-12-29T15:09:41.341Z,8.88
2022-12-29T15:12:26.558Z,8.88
2022-12-29T15:14:56.759Z,8.95
2022-12-29T15:17:33.752Z,8.85
2022-12-29T15:20:15.763Z,8.98
2022-12-29T15:22:49.541Z,8.95
2022-12-29T15:25:18.523Z,8.94
2022-12-29T15:27:52.565Z,9.00
2022-12-29T15:30:19.866Z,9.00
2022-12-29T15:32:49.340Z,9.06
2022-12-29T15:35:32.294Z,8.96
2022-12-29T15:38:00.514Z,9.00
2022-12-29T15:40:31.439Z,8.99
2022-12-29T15:43:33.728Z,8.96
2022-12-29T15:46:03.160Z,8.88
2022-12-29T15:48:31.786Z,8.90
2022-12-29T15:50:59.573Z,8.81
2022-12-29T15:53:32.883Z,8.78
2022-12-29T15:56:11.693Z,8.86
2022-12-29T15:58:51.440Z,8.77
2022-12-29T16:01:33.805Z,8.56
2022-12-29T16:04:10.006Z,8.58
2022-12-29T16:06:40.093Z,8.61
2022-12-29T16:09:30.802Z,8.56
2022-12-29T16:12:04.544Z,8.65
2022-12-29T16:14:35.199Z,8.55
2022-12-29T16:17:07.524Z,8.39
2022-12-29T16:19:41.642Z,8.25
2022-12-29T16:22:21.240Z,8.18
2022-12-29T16:24:47.817Z,8.11
2022-12-29T16:27:26.482Z,8.01
2022-12-29T16:29:56.303Z,8.09
2022-12-29T16:32:32.399Z,8.05
2022-12-29T16:35:27.881Z,8.00
2022-12-29T16:38:16.258Z,7.90
2022-12-29T16:40:55.449Z,7.77
2022-12-29T16:43:26.854Z,7.84
2022-12-29T16:45:53.290Z,7.94
2022-12-29T16:48:24.486Z,7.98
2022-12-29T16:50:51.286Z,8.06
2022-12-29T16:53:34.177Z,8.04
2022-12-29T16:56:27.982Z,7.96
2022-12-29T16:59:08.563Z,7.97
2022-12-29T17:01:41.578Z,7.92
2022-12-29T17:04:14.111Z,7.90
2022-12-29T17:06:42.000Z,7.84
2022-12-29T17:09:21.454Z,7.75
2022-12-29T17:12:00.535Z,7.63
2022-12-29T17:14:46.253Z,7.55
2022-12-29T17:17:14.883Z,7.52
2022-12-29T17:19:47.601Z,7.46
2022-12-29T17:22:21.471Z,7.38
2022-12-29T17:24:48.031Z,7.22
2022-12-29T17:27:30.330Z,7.23
2022-12-29T17:30:03.365Z,7.47
2022-12-29T17:32:30.588Z,7.42
2022-12-29T17:34:57.198Z,7.44
2022-12-29T17:37:23.682Z,7.47
2022-12-29T17:39:50.579Z,7.54
2022-12-29T17:42:20.037Z,7.58
2022-12-29T17:44:47.700Z,7.65
2022-12-29T17:47:15.754Z,7.69
2022-12-29T17:49:46.067Z,7.73
2022-12-29T17:52:15.872Z,7.73
2022-12-29T17:54:53.078Z,7.67
2022-12-29T17:57:21.336Z,7.61
2022-12-29T17:59:48.101Z,7.59
2022-12-29T18:02:32.761Z,7.48
2022-12-29T18:04:59.717Z,7.53
2022-12-29T18:07:35.440Z,7.51
2022-12-29T18:10:02.659Z,7.46
2022-12-29T18:12:41.035Z,7.42
2022-12-29T18:15:34.679Z,7.38
2022-12-29T18:18:12.884Z,7.35
2022-12-29T18:20:41.322Z,7.28
2022-12-29T18:23:20.592Z,7.12
2022-12-29T18:26:05.533Z,7.18
2022-12-29T18:28:32.081Z,7.23
2022-12-29T18:31:01.564Z,7.20
2022-12-29T18:33:29.892Z,7.19
2022-12-29T18:36:05.474Z,7.26
2022-12-29T18:38:31.944Z,7.30
2022-12-29T18:41:00.005Z,7.27
2022-12-29T18:43:26.481Z,7.27
2022-12-29T18:45:53.078Z,7.19
2022-12-29T18:48:21.044Z,7.15
2022-12-29T18:50:53.245Z,6.97
2022-12-29T18:53:25.092Z,6.79
2022-12-29T18:55:53.010Z,6.69
2022-12-29T18:58:19.820Z,6.60
2022-12-29T19:00:47.026Z,6.55
2022-12-29T19:03:16.983Z,6.50
2022-12-29T19:05:46.933Z,6.30
2022-12-29T19:08:13.926Z,6.34
2022-12-29T19:10:41.966Z,6.46
2022-12-29T19:13:17.188Z,6.59
2022-12-29T19:15:46.302Z,6.65
2022-12-29T19:21:08.942Z,6.65
2022-12-29T19:23:35.446Z,6.57
2022-12-29T19:26:01.972Z,6.49
2022-12-29T19:28:29.003Z,6.53
2022-12-29T19:31:00.660Z,6.55
2022-12-29T19:33:28.158Z,6.64
2022-12-29T19:36:00.754Z,6.62
2022-12-29T19:38:27.371Z,6.66
2022-12-29T19:40:53.961Z,6.71
2022-12-29T19:43:20.646Z,6.75
2022-12-29T19:45:47.184Z,6.82
2022-12-29T19:48:20.685Z,6.69
2022-12-29T19:50:47.790Z,6.79
2022-12-29T19:53:15.643Z,6.78
2022-12-29T19:55:44.363Z,6.79
2022-12-29T19:58:11.281Z,6.74
2022-12-29T20:00:43.273Z,6.68
2022-12-29T20:03:10.877Z,6.77
2022-12-29T20:05:39.531Z,6.86
2022-12-29T20:08:06.320Z,6.90
2022-12-29T20:10:33.060Z,6.86
2022-12-29T20:12:59.652Z,6.99
2022-12-29T20:15:29.123Z,7.01
2022-12-29T20:18:12.916Z,7.02
2022-12-29T20:20:41.120Z,6.97
2022-12-29T20:23:07.704Z,6.98
2022-12-29T20:25:44.596Z,7.09
2022-12-29T20:28:12.873Z,7.09
2022-12-29T20:30:39.539Z,7.05
2022-12-29T20:33:08.368Z,7.00
2022-12-29T20:35:36.497Z,7.10
2022-12-29T20:38:03.855Z,7.16
2022-12-29T20:40:30.416Z,7.20
2022-12-29T20:42:56.866Z,7.17
2022-12-29T20:45:23.454Z,7.06
2022-12-29T20:47:50.158Z,6.95
2022-12-29T20:50:16.746Z,6.98
2022-12-29T20:52:43.246Z,6.86
2022-12-29T20:55:09.921Z,6.82
2022-12-29T20:58:13.649Z,6.84
2022-12-29T21:00:23.131Z,6.67
2022-12-29T21:02:50.243Z,6.57
2022-12-29T21:05:25.492Z,6.55
2022-12-29T21:07:54.099Z,6.49
2022-12-29T21:10:21.898Z,6.47
2022-12-29T21:12:48.768Z,6.49
2022-12-29T21:15:16.125Z,6.46
2022-12-29T21:17:44.254Z,6.61
2022-12-29T21:20:29.910Z,6.62
2022-12-29T21:22:57.390Z,6.63
2022-12-29T21:25:24.201Z,6.69
2022-12-29T21:27:50.780Z,6.61
2022-12-29T21:30:18.054Z,6.47
2022-12-29T21:32:44.620Z,6.33
2022-12-29T21:35:11.144Z,6.32
2022-12-29T21:37:37.692Z,6.36
2022-12-29T21:40:05.630Z,6.35
2022-12-29T21:42:32.191Z,6.32
2022-12-29T21:45:20.668Z,6.07
2022-12-29T21:48:07.414Z,5.98
2022-12-29T21:50:57.710Z,5.81
2022-12-29T21:53:37.526Z,5.66
2022-12-29T21:56:11.323Z,5.73
2022-12-29T21:58:59.317Z,5.65
2022-12-29T22:01:46.749Z,5.51
2022-12-29T22:04:34.508Z,5.47
2022-12-29T22:07:22.424Z,5.49
2022-12-29T22:10:07.682Z,5.42
2022-12-29T22:12:54.002Z,5.43
2022-12-29T22:15:21.413Z,5.47
2022-12-29T22:17:54.062Z,5.49
2022-12-29T22:20:27.219Z,5.63
2022-12-29T22:22:54.038Z,5.65
2022-12-29T22:25:21.259Z,5.62
2022-12-29T22:27:52.880Z,5.53
2022-12-29T22:30:20.974Z,5.32
2022-12-29T22:32:47.513Z,5.27
2022-12-29T22:35:14.691Z,5.23
2022-12-29T22:37:45.344Z,5.23
2022-12-29T22:40:12.508Z,5.34
2022-12-29T22:42:39.823Z,5.40
2022-12-29T22:45:08.007Z,5.42
2022-12-29T22:47:34.885Z,5.48
2022-12-29T22:50:01.519Z,5.53
2022-12-29T22:52:28.246Z,5.53
2022-12-29T22:54:54.823Z,5.47
2022-12-29T22:57:21.567Z,5.37
2022-12-29T22:59:48.158Z,5.33
2022-12-29T23:02:14.790Z,5.31
2022-12-29T23:07:27.770Z,4.97
2022-12-29T23:09:54.301Z,4.96
2022-12-29T23:12:20.825Z,5.03
2022-12-29T23:14:47.308Z,4.96
2022-12-29T23:17:13.807Z,4.87
2022-12-29T23:19:40.277Z,4.90
2022-12-29T23:22:06.802Z,4.88
2022-12-29T23:24:33.314Z,4.84
2022-12-29T23:26:59.781Z,4.73
2022-12-29T23:29:26.276Z,4.70
2022-12-29T23:31:52.837Z,4.67
2022-12-29T23:34:19.402Z,4.74
2022-12-29T23:36:46.632Z,4.76
2022-12-29T23:39:26.091Z,4.74
2022-12-29T23:41:53.033Z,4.68
2022-12-29T23:44:19.599Z,4.60
2022-12-29T23:46:46.280Z,4.60
2022-12-29T23:49:12.804Z,4.52
2022-12-29T23:51:39.461Z,4.44
2022-12-29T23:54:06.081Z,4.29
2022-12-29T23:56:33.251Z,4.20
2022-12-29T23:59:03.333Z,4.20
